Time;durP1;ratioP1;P1;durP2;ratioP2;P2;SDS_P1;SDS_P2;PMS_P1;PMS_P2;Temp;Humidity;BMP_temperature;BMP_pressure;BME280_temperature;BME280_humidity;BME280_pressure;Samples;Min_cycle;Max_cycle;Signal;HPM_P1;HPM_P2
2022/01/11 00:01:04;;;;;;;37.30;15.82;;;;;;;-1.49;73.24;100904.31;4502306;31;20143;-71
2022/01/11 00:03:33;;;;;;;38.55;16.00;;;;;;;-1.42;73.11;100901.19;4502497;31;20111;-71
2022/01/11 00:06:13;;;;;;;41.05;16.58;;;;;;;-1.70;75.81;100912.88;4502361;31;20547;-71
2022/01/11 00:08:43;;;;;;;35.22;14.87;;;;;;;-1.70;76.03;100915.47;4502517;31;20076;-71
2022/01/11 00:11:11;;;;;;;44.65;15.65;;;;;;;-1.65;75.26;100928.59;4502486;31;20118;-71
2022/01/11 00:13:40;;;;;;;36.88;15.48;;;;;;;-1.85;75.74;100924.19;4502219;31;20155;-71
2022/01/11 00:16:09;;;;;;;34.65;14.02;;;;;;;-1.66;75.43;100916.50;4502539;31;20799;-71
2022/01/11 00:18:37;;;;;;;29.52;13.07;;;;;;;-1.76;75.28;100929.81;4502157;31;20084;-71
2022/01/11 00:21:04;;;;;;;31.27;13.65;;;;;;;-1.67;74.90;100935.37;4502285;31;20095;-71
2022/01/11 00:25:58;;;;;;;38.67;16.17;;;;;;;-1.72;75.95;100936.88;4502485;31;20480;-71
2022/01/11 00:28:26;;;;;;;30.88;13.45;;;;;;;-1.64;74.14;100930.34;4502246;31;20072;-71
2022/01/11 00:30:55;;;;;;;38.33;15.13;;;;;;;-1.73;74.47;100930.81;4502386;31;20083;-71
2022/01/11 00:34:00;;;;;;;40.58;15.52;;;;;;;-1.70;74.06;100950.72;4502160;31;20104;-71
2022/01/11 00:36:18;;;;;;;40.88;16.73;;;;;;;-1.83;74.93;100941.53;4500684;31;20099;-71
2022/01/11 00:38:46;;;;;;;37.80;14.70;;;;;;;-1.85;75.32;100950.91;4501998;31;20160;-71
2022/01/11 00:41:15;;;;;;;34.90;12.82;;;;;;;-1.52;74.17;100949.03;4502055;31;20118;-71
2022/01/11 00:43:43;;;;;;;26.12;12.40;;;;;;;-1.74;75.21;100954.00;4502089;31;20119;-71
2022/01/11 00:46:11;;;;;;;36.22;11.35;;;;;;;-1.72;75.60;100957.53;4502086;31;20099;-71
2022/01/11 00:48:40;;;;;;;26.90;10.30;;;;;;;-1.69;74.41;100968.03;4502156;31;20108;-71
2022/01/11 00:51:09;;;;;;;25.12;10.48;;;;;;;-1.64;73.62;100968.22;4502064;31;20116;-71
2022/01/11 00:53:39;;;;;;;25.90;11.20;;;;;;;-1.65;73.82;100966.47;4502165;31;20080;-71
2022/01/11 00:56:08;;;;;;;32.65;9.98;;;;;;;-1.54;73.04;100971.31;4502018;31;20442;-71
2022/01/11 00:58:35;;;;;;;19.95;8.70;;;;;;;-1.54;73.12;100970.44;4501293;31;20103;-71
2022/01/11 01:01:02;;;;;;;26.48;10.43;;;;;;;-1.59;73.17;100966.72;4502082;31;20159;-71
2022/01/11 01:03:30;;;;;;;21.80;9.52;;;;;;;-1.61;73.36;100976.13;4502010;31;20096;-71
2022/01/11 01:05:59;;;;;;;19.17;9.65;;;;;;;-1.56;73.50;100978.09;4501933;31;20117;-71
2022/01/11 01:08:27;;;;;;;22.50;10.05;;;;;;;-1.57;73.22;100984.09;4502193;31;20095;-71
2022/01/11 01:10:54;;;;;;;21.40;9.65;;;;;;;-1.55;72.83;100979.87;4502297;31;20092;-71
2022/01/11 01:13:25;;;;;;;23.05;10.40;;;;;;;-1.43;72.55;100984.72;4501864;31;20100;-71
2022/01/11 01:15:54;;;;;;;31.55;10.07;;;;;;;-1.41;71.96;100979.59;4501883;31;20086;-71
2022/01/11 01:18:26;;;;;;;29.00;10.00;;;;;;;-1.50;72.58;100986.13;4501826;31;20084;-71
2022/01/11 01:20:54;;;;;;;21.95;8.95;;;;;;;-1.49;72.34;100995.66;4501960;31;20079;-71
2022/01/11 01:23:23;;;;;;;24.20;9.57;;;;;;;-1.60;72.89;100996.84;4501929;31;20134;-71
2022/01/11 01:25:52;;;;;;;21.37;8.90;;;;;;;-1.52;73.09;101000.72;4501824;31;20182;-71
2022/01/11 01:28:19;;;;;;;22.73;9.45;;;;;;;-1.56;73.25;101001.34;4501757;31;20080;-71
2022/01/11 01:30:48;;;;;;;22.90;9.30;;;;;;;-1.49;72.62;101005.09;4501848;31;20159;-71
2022/01/11 01:33:16;;;;;;;15.90;8.05;;;;;;;-1.43;72.88;101007.09;4501769;31;20159;-71
2022/01/11 01:35:48;;;;;;;24.48;9.18;;;;;;;-1.50;72.70;101009.41;4501915;31;20125;-71
2022/01/11 01:38:22;;;;;;;19.40;8.40;;;;;;;-1.46;73.26;101000.09;4501899;31;20462;-71
2022/01/11 01:40:51;;;;;;;21.52;8.15;;;;;;;-1.24;72.44;101009.69;4501717;31;20114;-71
2022/01/11 01:43:18;;;;;;;21.42;8.25;;;;;;;-1.11;71.78;101016.31;4501877;31;20478;-71
2022/01/11 01:45:48;;;;;;;20.30;9.02;;;;;;;-1.18;71.98;101016.87;4501859;31;20981;-71
2022/01/11 01:48:17;;;;;;;24.05;8.57;;;;;;;-1.21;72.13;101009.84;4501725;31;20084;-71
2022/01/11 01:50:44;;;;;;;21.60;8.35;;;;;;;-1.16;72.15;101010.97;4501742;31;20168;-71
2022/01/11 01:53:14;;;;;;;15.80;6.70;;;;;;;-0.99;71.29;101011.69;4501554;31;20485;-71
2022/01/11 01:55:44;;;;;;;14.32;6.90;;;;;;;-0.83;70.90;101013.28;4501622;31;20459;-71
2022/01/11 01:58:13;;;;;;;12.73;6.40;;;;;;;-0.67;70.39;101010.53;4501604;31;20110;-71
2022/01/11 02:00:45;;;;;;;12.98;6.18;;;;;;;-0.66;69.71;101007.13;4501593;31;20092;-71
2022/01/11 02:03:15;;;;;;;13.50;5.78;;;;;;;-0.57;69.29;101006.63;4501846;31;20091;-71
2022/01/11 02:05:43;;;;;;;18.15;6.28;;;;;;;-0.60;69.17;101007.41;4501492;31;20583;-71
2022/01/11 02:08:13;;;;;;;9.85;5.65;;;;;;;-0.58;68.77;101005.75;4501569;31;20080;-71
2022/01/11 02:10:40;;;;;;;12.30;5.45;;;;;;;-0.47;68.36;101005.31;4501598;31;20114;-71
2022/01/11 02:13:10;;;;;;;11.43;4.85;;;;;;;-0.41;68.21;101016.81;4501532;31;20104;-71
2022/01/11 02:15:38;;;;;;;11.75;5.18;;;;;;;-0.44;67.11;101014.09;4501522;31;20527;-71
2022/01/11 02:18:15;;;;;;;11.52;5.32;;;;;;;-0.45;67.34;101016.66;4501437;31;20117;-71
2022/01/11 02:20:45;;;;;;;10.80;4.72;;;;;;;-0.37;68.44;101010.06;4501589;31;20526;-71
2022/01/11 02:23:14;;;;;;;10.40;5.28;;;;;;;-0.33;66.84;101019.75;4501586;31;20118;-71
2022/01/11 02:25:42;;;;;;;10.48;4.72;;;;;;;-0.34;66.26;101015.38;4501247;31;20091;-71
2022/01/11 02:28:15;;;;;;;12.70;5.37;;;;;;;-0.32;66.67;101024.09;4501514;31;20486;-71
2022/01/11 02:30:43;;;;;;;11.23;5.35;;;;;;;-0.23;65.08;101015.84;4501629;31;20252;-71
2022/01/11 02:33:32;;;;;;;10.07;4.82;;;;;;;-0.12;64.04;101015.44;4501504;31;20108;-71
2022/01/11 02:36:07;;;;;;;11.63;5.47;;;;;;;-0.33;65.17;101017.16;4501593;31;20539;-71
2022/01/11 02:38:35;;;;;;;13.25;5.95;;;;;;;-0.40;66.31;101022.88;4501284;31;20105;-71
2022/01/11 02:41:04;;;;;;;17.45;6.62;;;;;;;-0.59;67.16;101021.22;4501132;31;20092;-71
2022/01/11 02:43:31;;;;;;;16.90;6.68;;;;;;;-0.65;67.95;101019.25;4501042;31;20103;-71
2022/01/11 02:46:00;;;;;;;17.77;6.32;;;;;;;-0.72;67.91;101020.69;4501343;31;20129;-71
2022/01/11 02:48:30;;;;;;;9.15;5.30;;;;;;;-0.90;68.42;101022.47;4501341;31;20109;-71
2022/01/11 02:50:57;;;;;;;13.23;5.50;;;;;;;-1.00;68.25;101025.44;4501028;31;20162;-71
2022/01/11 02:53:26;;;;;;;11.48;5.43;;;;;;;-1.05;68.16;101027.84;4501280;31;20172;-71
2022/01/11 02:55:54;;;;;;;10.30;4.47;;;;;;;-1.05;67.66;101030.44;4500971;31;20103;-71
2022/01/11 02:58:21;;;;;;;10.95;4.78;;;;;;;-1.12;67.35;101027.50;4501112;31;20118;-71
2022/01/11 03:00:49;;;;;;;10.80;5.00;;;;;;;-1.25;67.94;101026.03;4500993;31;20456;-71
2022/01/11 03:03:22;;;;;;;13.70;4.80;;;;;;;-1.28;67.94;101023.31;4501161;31;20099;-71
2022/01/11 03:05:56;;;;;;;13.45;5.40;;;;;;;-1.27;67.55;101020.81;4501153;31;20525;-71
2022/01/11 03:08:27;;;;;;;10.80;4.30;;;;;;;-1.32;67.68;101022.28;4500912;31;20110;-71
2022/01/11 03:10:55;;;;;;;10.55;4.87;;;;;;;-1.54;68.70;101033.34;4500813;31;20457;-71
2022/01/11 03:13:23;;;;;;;12.75;6.12;;;;;;;-1.54;68.98;101038.50;4500937;31;20092;-71
2022/01/11 03:15:52;;;;;;;11.60;5.35;;;;;;;-1.59;68.81;101042.56;4500985;31;20542;-71
2022/01/11 03:18:21;;;;;;;12.73;5.20;;;;;;;-1.57;69.03;101050.37;4500590;31;20079;-71
2022/01/11 03:20:51;;;;;;;10.70;5.30;;;;;;;-1.42;68.22;101052.81;4501250;31;20443;-71
2022/01/11 03:23:20;;;;;;;13.32;4.95;;;;;;;-1.30;67.93;101055.97;4502967;31;20384;-71
2022/01/11 03:25:51;;;;;;;11.10;5.18;;;;;;;-1.15;67.22;101060.97;4502985;31;20099;-71
2022/01/11 03:28:21;;;;;;;10.15;5.43;;;;;;;-1.29;67.46;101061.22;4503042;31;20473;-71
2022/01/11 03:30:50;;;;;;;14.87;6.00;;;;;;;-1.33;67.82;101061.88;4502685;31;20111;-71
2022/01/11 03:33:18;;;;;;;15.65;6.43;;;;;;;-1.47;68.27;101057.78;4502768;31;20171;-71
2022/01/11 03:35:46;;;;;;;15.07;6.20;;;;;;;-1.63;69.35;101063.87;4502939;31;20175;-71
2022/01/11 03:38:16;;;;;;;16.73;6.68;;;;;;;-1.69;69.75;101074.84;4502894;31;20152;-71
2022/01/11 03:40:43;;;;;;;19.23;8.02;;;;;;;-1.55;69.60;101067.75;4502595;31;20080;-71
2022/01/11 03:43:11;;;;;;;15.88;7.53;;;;;;;-1.66;70.39;101074.09;4502699;31;20203;-71
2022/01/11 03:45:39;;;;;;;20.17;7.87;;;;;;;-1.98;71.59;101070.84;4502816;31;20128;-71
2022/01/11 03:48:08;;;;;;;19.80;8.20;;;;;;;-2.21;72.28;101076.53;4502743;31;20088;-71
2022/01/11 03:50:36;;;;;;;22.62;8.90;;;;;;;-1.89;71.90;101072.09;4502861;31;20195;-71
2022/01/11 03:53:14;;;;;;;19.00;8.25;;;;;;;-1.98;72.37;101077.66;4502690;31;20514;-71
2022/01/11 03:58:13;;;;;;;24.42;9.95;;;;;;;-2.06;73.28;101074.72;4502648;31;20415;-71
2022/01/11 04:00:42;;;;;;;21.85;9.80;;;;;;;-2.09;73.55;101086.59;4502529;31;20119;-71
2022/01/11 04:03:11;;;;;;;22.08;9.85;;;;;;;-2.24;74.36;101090.16;4502542;31;20080;-71
2022/01/11 04:05:41;;;;;;;27.58;10.18;;;;;;;-2.22;74.23;101092.84;4502658;31;20198;-71
2022/01/11 04:08:09;;;;;;;20.65;10.27;;;;;;;-2.38;74.95;101100.59;4502371;31;20469;-71
2022/01/11 04:10:37;;;;;;;20.30;10.32;;;;;;;-2.24;74.45;101103.06;4502547;31;20438;-71
2022/01/11 04:13:04;;;;;;;27.25;10.30;;;;;;;-2.28;74.57;101102.84;4502343;31;20368;-71
2022/01/11 04:15:31;;;;;;;21.98;10.52;;;;;;;-2.21;74.01;101099.78;4502334;31;20143;-71
2022/01/11 04:18:00;;;;;;;22.67;10.55;;;;;;;-2.31;74.12;101098.41;4502424;31;20469;-71
2022/01/11 04:20:27;;;;;;;20.37;9.48;;;;;;;-2.25;73.70;101108.16;4502359;31;20494;-71
2022/01/11 04:22:54;;;;;;;20.75;8.75;;;;;;;-2.15;72.88;101099.22;4502149;31;20083;-71
2022/01/11 04:25:23;;;;;;;20.48;8.95;;;;;;;-2.35;73.07;101109.38;4502541;31;20095;-71
2022/01/11 04:27:52;;;;;;;22.50;8.65;;;;;;;-2.33;72.84;101112.03;4502456;31;20091;-71
2022/01/11 04:30:20;;;;;;;18.65;7.68;;;;;;;-2.44;73.07;101117.56;4502331;31;20143;-71
2022/01/11 04:32:48;;;;;;;16.02;8.15;;;;;;;-2.34;72.53;101123.16;4501198;31;20096;-71
2022/01/11 04:35:16;;;;;;;18.27;8.60;;;;;;;-2.53;72.90;101111.91;4502162;31;20095;-71
2022/01/11 04:37:45;;;;;;;23.87;8.30;;;;;;;-2.63;73.19;101113.91;4502446;31;20174;-71
2022/01/11 04:40:14;;;;;;;15.80;8.05;;;;;;;-2.46;72.75;101114.00;4502375;31;20423;-71
2022/01/11 04:42:43;;;;;;;17.95;8.82;;;;;;;-2.47;72.98;101119.97;4502065;31;20568;-71
2022/01/11 04:45:11;;;;;;;18.23;8.98;;;;;;;-2.57;73.03;101129.72;4502100;31;20090;-71
2022/01/11 04:47:39;;;;;;;20.95;8.73;;;;;;;-2.52;72.94;101134.31;4502150;31;20096;-71
2022/01/11 04:50:09;;;;;;;18.83;8.75;;;;;;;-2.54;73.13;101138.50;4502069;31;20092;-71
2022/01/11 04:52:36;;;;;;;16.80;8.55;;;;;;;-2.53;73.10;101145.44;4502129;31;20087;-71
2022/01/11 04:55:06;;;;;;;22.10;10.00;;;;;;;-2.60;73.39;101145.03;4502140;31;20452;-71
2022/01/11 04:57:44;;;;;;;23.98;8.57;;;;;;;-2.63;73.45;101156.06;4502214;31;20412;-71
2022/01/11 05:00:13;;;;;;;17.33;9.10;;;;;;;-2.61;73.22;101159.63;4501980;31;20096;-71
2022/01/11 05:02:42;;;;;;;23.58;9.57;;;;;;;-2.70;73.51;101156.56;4502022;31;20170;-71
2022/01/11 05:05:09;;;;;;;24.33;10.90;;;;;;;-2.43;72.15;101155.44;4501904;31;20349;-71
2022/01/11 05:07:42;;;;;;;26.45;11.10;;;;;;;-2.50;72.15;101166.25;4502041;31;20431;-71
2022/01/11 05:10:10;;;;;;;23.50;10.05;;;;;;;-2.77;73.20;101162.19;4502262;31;20099;-71
2022/01/11 05:12:38;;;;;;;26.05;10.23;;;;;;;-2.89;73.67;101163.31;4501703;31;20429;-71
2022/01/11 05:15:11;;;;;;;22.30;9.80;;;;;;;-2.94;73.82;101167.31;4502084;31;20099;-71
2022/01/11 05:17:40;;;;;;;21.23;9.32;;;;;;;-2.78;73.24;101175.91;4502171;31;20435;-71
2022/01/11 05:20:09;;;;;;;21.60;9.07;;;;;;;-2.82;72.96;101189.44;4499381;31;20122;-71
2022/01/11 05:22:39;;;;;;;19.52;8.27;;;;;;;-2.92;73.35;101183.75;4501769;31;20122;-71
2022/01/11 05:25:06;;;;;;;20.00;9.35;;;;;;;-2.84;73.01;101191.03;4502615;31;20095;-71
2022/01/11 05:27:34;;;;;;;19.10;8.70;;;;;;;-3.02;73.86;101189.22;4502737;31;20186;-72
2022/01/11 05:30:02;;;;;;;19.37;8.50;;;;;;;-2.79;73.41;101192.16;4502129;31;20558;-71
2022/01/11 05:32:29;;;;;;;21.37;8.98;;;;;;;-2.89;73.97;101191.66;4501908;31;20511;-71
2022/01/11 05:34:57;;;;;;;19.08;8.63;;;;;;;-2.84;73.83;101196.19;4501941;31;20099;-71
2022/01/11 05:37:24;;;;;;;22.25;9.50;;;;;;;-2.96;74.09;101197.28;4501672;31;20110;-71
2022/01/11 05:39:53;;;;;;;18.30;8.63;;;;;;;-3.17;74.65;101207.28;4486927;31;20162;-71
2022/01/11 05:42:22;;;;;;;22.87;9.02;;;;;;;-2.87;73.80;101209.78;4501868;31;20468;-71
2022/01/11 05:44:49;;;;;;;22.00;9.20;;;;;;;-2.88;73.54;101213.19;4501220;31;20095;-71
2022/01/11 05:47:16;;;;;;;17.85;8.40;;;;;;;-2.93;73.75;101220.66;4502068;31;20088;-71
2022/01/11 05:49:44;;;;;;;23.55;8.48;;;;;;;-2.78;73.07;101222.31;4501965;31;20097;-71
2022/01/11 05:52:13;;;;;;;18.17;8.25;;;;;;;-3.07;74.02;101228.41;4502697;31;20092;-71
2022/01/11 05:54:41;;;;;;;21.55;9.63;;;;;;;-2.87;72.86;101233.00;4502670;31;20126;-71
2022/01/11 05:57:08;;;;;;;21.33;8.48;;;;;;;-2.74;72.11;101226.84;4502702;31;20727;-72
2022/01/11 05:59:36;;;;;;;19.05;8.52;;;;;;;-2.82;72.16;101230.69;4502698;31;20506;-72
2022/01/11 06:02:03;;;;;;;53.53;16.62;;;;;;;-2.99;72.79;101235.78;4501868;31;20152;-71
2022/01/11 06:04:31;;;;;;;65.53;24.70;;;;;;;-3.13;73.15;101245.31;4498942;31;20170;-71
2022/01/11 06:06:59;;;;;;;71.75;30.20;;;;;;;-3.10;73.14;101243.72;4500838;31;20121;-71
2022/01/11 06:09:28;;;;;;;68.20;31.00;;;;;;;-3.30;73.53;101251.19;4502010;31;20750;-71
2022/01/11 06:11:56;;;;;;;47.60;22.58;;;;;;;-3.35;73.88;101256.91;4500783;31;20122;-72
2022/01/11 06:14:24;;;;;;;41.13;18.98;;;;;;;-3.32;73.42;101257.97;4500442;31;20103;-71
2022/01/11 06:16:51;;;;;;;34.33;14.80;;;;;;;-3.28;73.27;101259.91;4496662;31;166140;-70
2022/01/11 06:19:19;;;;;;;26.50;10.98;;;;;;;-3.27;73.15;101259.12;4501168;31;20440;-71
2022/01/11 06:21:47;;;;;;;33.78;10.65;;;;;;;-3.28;73.40;101266.78;4495165;31;20159;-71
2022/01/11 06:24:14;;;;;;;19.52;9.57;;;;;;;-3.27;73.03;101266.84;4485489;31;20121;-70
2022/01/11 06:26:42;;;;;;;19.95;8.68;;;;;;;-3.26;72.70;101267.72;4485490;31;20114;-70
2022/01/11 06:29:10;;;;;;;21.98;8.32;;;;;;;-3.17;72.37;101269.16;4485529;31;20102;-71
2022/01/11 06:31:37;;;;;;;22.80;7.55;;;;;;;-3.18;71.91;101282.84;4485067;31;20088;-70
2022/01/11 06:34:05;;;;;;;19.48;8.15;;;;;;;-3.25;71.96;101291.03;4485419;31;20103;-71
2022/01/11 06:36:32;;;;;;;17.33;7.65;;;;;;;-3.13;71.42;101291.72;4499512;31;20083;-71
2022/01/11 06:38:59;;;;;;;17.10;7.65;;;;;;;-3.06;71.41;101303.28;4500393;31;20416;-70
2022/01/11 06:41:27;;;;;;;18.87;8.00;;;;;;;-3.03;71.15;101310.31;4500841;31;20088;-70
2022/01/11 06:43:55;;;;;;;23.80;7.30;;;;;;;-3.08;70.98;101304.87;4501101;31;20159;-71
2022/01/11 06:46:24;;;;;;;16.20;6.55;;;;;;;-3.15;71.17;101310.47;4501243;31;20079;-70
2022/01/11 06:48:52;;;;;;;15.50;6.78;;;;;;;-3.10;71.00;101308.19;4500984;31;20108;-71
2022/01/11 06:51:19;;;;;;;16.77;6.40;;;;;;;-3.02;70.58;101319.81;4500973;31;20096;-70
2022/01/11 06:53:47;;;;;;;12.32;6.25;;;;;;;-2.90;70.13;101320.50;4501019;31;20558;-70
2022/01/11 06:56:17;;;;;;;11.95;6.05;;;;;;;-2.96;70.44;101326.22;4499546;31;20428;-71
2022/01/11 06:58:45;;;;;;;15.23;6.87;;;;;;;-2.85;70.17;101329.41;4501115;31;20458;-70
2022/01/11 07:01:12;;;;;;;12.63;6.10;;;;;;;-2.76;69.55;101331.59;4500853;31;20176;-71
2022/01/11 07:03:41;;;;;;;14.38;6.43;;;;;;;-2.72;69.43;101331.87;4500684;31;20130;-70
2022/01/11 07:06:09;;;;;;;14.95;6.25;;;;;;;-2.55;68.55;101334.50;4501022;31;20348;-70
2022/01/11 07:08:36;;;;;;;20.50;6.68;;;;;;;-2.51;68.83;101341.63;4500781;31;20091;-70
2022/01/11 07:11:04;;;;;;;17.12;7.20;;;;;;;-2.42;68.19;101342.13;4500762;31;20122;-71
2022/01/11 07:13:32;;;;;;;17.98;6.97;;;;;;;-2.38;67.85;101336.34;4500739;31;20150;-70
2022/01/11 07:15:59;;;;;;;20.23;7.60;;;;;;;-2.32;67.62;101349.59;4500589;31;20156;-70
2022/01/11 07:18:27;;;;;;;19.70;8.15;;;;;;;-2.24;67.72;101352.59;4500452;31;20099;-71
2022/01/11 07:20:55;;;;;;;45.97;15.65;;;;;;;-2.21;67.90;101352.75;4500751;31;20451;-71
2022/01/11 07:23:23;;;;;;;21.52;8.98;;;;;;;-2.15;67.49;101350.53;4500611;31;20091;-71
2022/01/11 07:25:51;;;;;;;17.33;8.05;;;;;;;-2.01;67.02;101357.31;4500441;31;20139;-70
2022/01/11 07:28:18;;;;;;;17.20;8.13;;;;;;;-2.02;67.12;101359.81;4500446;31;20112;-70
2022/01/11 07:30:45;;;;;;;17.30;7.53;;;;;;;-1.95;66.92;101364.50;4500460;31;20093;-71
2022/01/11 07:33:13;;;;;;;16.48;7.35;;;;;;;-1.77;66.59;101362.00;4500310;31;20531;-72
2022/01/11 07:35:41;;;;;;;16.00;7.43;;;;;;;-1.64;65.90;101354.12;4500522;31;20157;-70
2022/01/11 07:38:08;;;;;;;17.05;7.57;;;;;;;-1.53;65.70;101365.00;4485382;31;20084;-70
2022/01/11 07:40:37;;;;;;;17.62;7.32;;;;;;;-1.42;64.15;101365.56;4500252;31;20088;-72
2022/01/11 07:43:05;;;;;;;17.42;6.68;;;;;;;-1.35;65.14;101375.44;4500404;31;20099;-71
2022/01/11 07:45:33;;;;;;;20.27;7.80;;;;;;;-1.30;64.12;101371.41;4500206;31;20092;-71
2022/01/11 07:48:03;;;;;;;17.42;7.47;;;;;;;-1.31;64.84;101372.19;4500336;31;20123;-71
2022/01/11 07:50:32;;;;;;;19.48;6.07;;;;;;;-1.13;63.47;101369.66;4500417;31;20104;-71
2022/01/11 07:53:00;;;;;;;11.43;5.90;;;;;;;-1.00;62.90;101388.47;4500440;31;20503;-71
2022/01/11 07:55:28;;;;;;;15.25;7.45;;;;;;;-1.03;63.75;101377.06;4498752;31;20421;-71
2022/01/11 07:57:55;;;;;;;21.30;6.80;;;;;;;-0.93;63.69;101381.03;4484143;31;20179;-71
2022/01/11 08:00:22;;;;;;;15.93;6.22;;;;;;;-0.86;62.88;101384.00;4484455;31;20091;-69
2022/01/11 08:02:50;;;;;;;17.77;6.82;;;;;;;-0.68;63.12;101380.53;4484798;31;21066;-70
2022/01/11 08:05:21;;;;;;;13.15;4.95;;;;;;;-0.57;61.62;101385.41;4484945;31;20479;-71
2022/01/11 08:07:50;;;;;;;15.20;5.93;;;;;;;-0.50;60.68;101378.84;4486487;31;20615;-71
2022/01/11 08:10:18;;;;;;;11.35;6.10;;;;;;;-0.44;60.97;101392.09;4487225;31;20145;-72
2022/01/11 08:12:50;;;;;;;15.63;6.30;;;;;;;-0.34;59.73;101381.38;4486681;31;20171;-72
2022/01/11 08:15:18;;;;;;;13.38;6.35;;;;;;;-0.33;60.21;101395.22;4486399;31;20084;-73
2022/01/11 08:17:47;;;;;;;9.75;4.62;;;;;;;-0.26;59.99;101394.69;4486427;31;20104;-71
2022/01/11 08:20:16;;;;;;;12.57;5.68;;;;;;;-0.17;58.03;101391.66;4486514;31;20112;-71
2022/01/11 08:22:48;;;;;;;12.20;5.80;;;;;;;-0.14;58.85;101397.88;4487399;31;20111;-72
2022/01/11 08:25:15;;;;;;;11.48;6.12;;;;;;;-0.22;59.06;101399.19;4487174;31;20084;-71
2022/01/11 08:27:43;;;;;;;14.48;6.18;;;;;;;-0.09;59.12;101391.19;4487218;31;20096;-71
2022/01/11 08:30:11;;;;;;;12.88;5.87;;;;;;;0.02;57.85;101393.41;4488455;31;20104;-73
2022/01/11 08:32:40;;;;;;;27.75;6.07;;;;;;;0.05;57.28;101399.63;4500694;31;20137;-73
2022/01/11 08:35:10;;;;;;;15.57;6.20;;;;;;;0.13;58.04;101397.38;4503135;31;20164;-73
2022/01/11 08:37:38;;;;;;;13.52;5.90;;;;;;;0.20;57.55;101394.25;4503200;31;20122;-73
2022/01/11 08:40:06;;;;;;;19.35;6.72;;;;;;;0.26;57.27;101404.03;4502644;31;20104;-73
2022/01/11 08:42:35;;;;;;;14.48;6.20;;;;;;;0.32;57.71;101405.22;4487056;31;20100;-73
2022/01/11 08:45:03;;;;;;;17.30;6.10;;;;;;;0.25;55.83;101403.16;4502405;31;20093;-75
2022/01/11 08:47:32;;;;;;;16.08;5.72;;;;;;;0.39;57.05;101407.25;4502027;31;20092;-73
2022/01/11 08:50:05;;;;;;;14.98;6.15;;;;;;;0.41;56.24;101415.97;4502012;31;20096;-74
2022/01/11 08:52:33;;;;;;;14.18;6.28;;;;;;;0.51;55.60;101412.09;4502469;31;20099;-73
2022/01/11 08:55:02;;;;;;;17.10;6.00;;;;;;;0.63;55.95;101416.94;4502713;31;20160;-73
2022/01/11 08:57:30;;;;;;;16.08;6.00;;;;;;;0.73;55.19;101416.53;4502899;31;20113;-72
2022/01/11 08:59:57;;;;;;;13.48;5.75;;;;;;;0.81;55.49;101412.56;4502907;31;20100;-73
2022/01/11 09:02:25;;;;;;;18.60;6.18;;;;;;;0.87;55.56;101414.56;4502631;31;20108;-71
2022/01/11 09:04:53;;;;;;;13.73;6.30;;;;;;;0.99;54.92;101411.59;4501609;31;20087;-71
2022/01/11 09:07:21;;;;;;;17.92;7.35;;;;;;;1.06;54.70;101417.16;4502861;31;20091;-71
2022/01/11 09:09:49;;;;;;;16.80;6.20;;;;;;;1.25;54.36;101421.41;4502664;31;20107;-72
2022/01/11 09:12:19;;;;;;;14.82;6.03;;;;;;;1.18;54.22;101419.38;4502776;31;20091;-71
2022/01/11 09:14:46;;;;;;;13.95;5.95;;;;;;;1.18;53.24;101425.44;4502862;31;20633;-74
2022/01/11 09:17:14;;;;;;;10.18;5.15;;;;;;;1.23;52.75;101406.56;4502463;31;20496;-73
2022/01/11 09:19:42;;;;;;;12.90;5.82;;;;;;;1.32;53.70;101417.34;4494731;31;20471;-75
2022/01/11 09:22:10;;;;;;;10.27;5.40;;;;;;;1.41;52.72;101412.53;4495369;31;20111;-73
2022/01/11 09:24:38;;;;;;;12.27;6.18;;;;;;;1.53;53.15;101407.84;4494370;31;20530;-72
2022/01/11 09:27:06;;;;;;;13.13;5.90;;;;;;;1.72;52.72;101412.06;4492750;31;20108;-73
2022/01/11 09:29:38;;;;;;;12.30;5.82;;;;;;;1.78;51.72;101404.53;4486825;31;20565;-74
2022/01/11 09:32:07;;;;;;;15.40;6.82;;;;;;;1.87;52.66;101415.31;4486317;31;20103;-71
2022/01/11 09:34:38;;;;;;;13.23;5.90;;;;;;;2.05;55.05;101403.84;4486506;31;20092;-71
2022/01/11 09:37:09;;;;;;;13.38;5.30;;;;;;;2.51;58.84;101416.91;4497155;31;20099;-71
2022/01/11 09:39:38;;;;;;;13.20;6.05;;;;;;;2.51;51.32;101416.00;4489996;31;20131;-71
2022/01/11 09:42:06;;;;;;;9.02;5.45;;;;;;;2.51;50.99;101416.00;4486765;31;20770;-71
2022/01/11 09:44:38;;;;;;;22.20;5.82;;;;;;;2.70;54.74;101420.19;4486659;31;20514;-71
2022/01/11 09:47:09;;;;;;;13.50;5.78;;;;;;;3.16;52.67;101417.50;4480024;31;20492;-70
2022/01/11 09:49:37;;;;;;;21.55;5.37;;;;;;;2.97;50.30;101404.66;4502571;31;20095;-73
2022/01/11 09:52:07;;;;;;;16.30;5.97;;;;;;;3.17;55.48;101413.16;4501100;31;20133;-73
2022/01/11 09:54:37;;;;;;;16.02;5.82;;;;;;;3.18;48.67;101414.94;4494232;31;20148;-73
2022/01/11 09:57:09;;;;;;;11.30;5.07;;;;;;;3.26;50.37;101410.88;4488260;31;20117;-73
2022/01/11 09:59:37;;;;;;;15.30;5.70;;;;;;;3.16;48.94;101407.06;4488365;31;20092;-71
2022/01/11 10:02:13;;;;;;;12.70;6.28;;;;;;;3.22;48.95;101415.09;4494153;31;20111;-71
2022/01/11 10:04:44;;;;;;;10.20;5.93;;;;;;;3.46;49.73;101409.81;4501751;31;20110;-71
2022/01/11 10:07:13;;;;;;;12.30;5.78;;;;;;;3.66;50.94;101402.66;4501003;31;20138;-71
2022/01/11 10:09:48;;;;;;;10.88;5.87;;;;;;;3.53;47.32;101400.50;4501898;31;20475;-71
2022/01/11 10:12:18;;;;;;;13.57;5.50;;;;;;;3.80;50.93;101408.31;4499486;31;20472;-71
2022/01/11 10:14:52;;;;;;;14.45;5.50;;;;;;;3.99;48.85;101404.56;4485737;31;20080;-71
2022/01/11 10:17:23;;;;;;;15.50;5.65;;;;;;;4.12;50.03;101398.03;4485501;31;20106;-71
2022/01/11 10:19:58;;;;;;;25.33;7.85;;;;;;;4.27;47.75;101412.41;4485317;31;20160;-71
2022/01/11 10:22:26;;;;;;;13.52;5.72;;;;;;;4.21;47.32;101408.75;4486490;31;20161;-71
2022/01/11 10:24:54;;;;;;;23.48;5.78;;;;;;;4.25;46.27;101406.28;4490799;31;20122;-70
2022/01/11 10:27:34;;;;;;;9.25;4.82;;;;;;;4.36;50.31;101419.63;4488382;31;20118;-71
2022/01/11 10:30:12;;;;;;;24.60;5.15;;;;;;;4.24;45.96;101401.91;4483509;31;20116;-70
2022/01/11 10:32:46;;;;;;;18.58;5.70;;;;;;;4.61;45.89;101404.69;4484544;31;20103;-71
2022/01/11 10:35:21;;;;;;;16.08;6.12;;;;;;;5.08;43.87;101406.00;4490171;31;20084;-71
2022/01/11 10:38:11;;;;;;;9.77;5.95;;;;;;;5.92;42.65;101402.91;4488561;31;20088;-71
2022/01/11 10:40:45;;;;;;;25.40;6.85;;;;;;;6.13;39.68;101405.16;4496260;31;20122;-72
2022/01/11 10:43:18;;;;;;;13.38;6.00;;;;;;;6.43;39.79;101402.34;4486080;31;20132;-72
2022/01/11 10:45:58;;;;;;;22.70;8.02;;;;;;;6.95;38.71;101405.97;4485693;31;20076;-73
2022/01/11 10:48:28;;;;;;;14.52;6.50;;;;;;;7.09;38.34;101406.25;4488739;31;20114;-73
2022/01/11 10:51:01;;;;;;;15.05;6.50;;;;;;;7.74;36.47;101395.16;4496479;31;20130;-72
2022/01/11 10:53:38;;;;;;;10.50;6.20;;;;;;;8.18;36.15;101396.66;4486164;31;20486;-74
2022/01/11 10:56:07;;;;;;;13.52;7.00;;;;;;;8.39;35.04;101397.00;4485679;31;20079;-73
2022/01/11 10:59:07;;;;;;;13.00;6.35;;;;;;;8.89;34.66;101398.47;4486184;31;20134;-74
2022/01/11 11:01:35;;;;;;;12.40;6.82;;;;;;;9.36;34.87;101398.94;4485672;31;20122;-73
2022/01/11 11:04:03;;;;;;;12.60;5.60;;;;;;;9.97;33.29;101396.84;4485692;31;20096;-71
2022/01/11 11:06:31;;;;;;;11.25;6.10;;;;;;;10.17;32.88;101404.84;4485719;31;20769;-72
2022/01/11 11:08:58;;;;;;;10.27;5.32;;;;;;;10.35;32.65;101406.72;4485860;31;20088;-72
2022/01/11 11:11:26;;;;;;;10.93;6.20;;;;;;;10.71;32.84;101400.78;4485833;31;20498;-72
2022/01/11 11:13:57;;;;;;;9.85;6.12;;;;;;;10.37;31.53;101393.59;4485587;31;20503;-72
2022/01/11 11:16:30;;;;;;;9.95;5.95;;;;;;;10.42;31.88;101403.25;4485850;31;20084;-73
2022/01/11 11:19:02;;;;;;;10.63;5.85;;;;;;;10.58;33.17;101400.72;4485734;31;20123;-74
2022/01/11 11:21:38;;;;;;;10.18;6.22;;;;;;;10.54;31.59;101397.19;4485665;31;20176;-73
2022/01/11 11:24:12;;;;;;;16.05;7.90;;;;;;;10.63;32.35;101396.31;4485422;31;20427;-72
2022/01/11 11:26:44;;;;;;;11.07;6.22;;;;;;;11.21;31.29;101397.38;4485267;31;20183;-73
2022/01/11 11:29:11;;;;;;;9.77;6.47;;;;;;;11.60;31.34;101394.78;4499644;31;20147;-71
2022/01/11 11:32:00;;;;;;;14.40;6.90;;;;;;;11.86;30.51;101393.03;4501316;31;20144;-73